sensor_id;sensor_type;location;lat;lon;timestamp;pressure;altitude;pressure_sealevel;temperature;humidity
21401;BME280;18038;50.166;18.908;2022-08-16T00:03:10;97216.44;;;17.81;70.31
21401;BME280;18038;50.166;18.908;2022-08-16T00:06:19;97208.09;;;17.83;70.49
21401;BME280;18038;50.166;18.908;2022-08-16T00:09:25;97210.78;;;17.83;70.31
21401;BME280;18038;50.166;18.908;2022-08-16T00:12:32;97202.69;;;17.83;70.49
21401;BME280;18038;50.166;18.908;2022-08-16T00:15:42;97203.50;;;17.83;70.15
21401;BME280;18038;50.166;18.908;2022-08-16T00:18:59;97210.81;;;17.88;70.08
21401;BME280;18038;50.166;18.908;2022-08-16T00:22:06;97213.56;;;17.93;70.21
21401;BME280;18038;50.166;18.908;2022-08-16T00:25:17;97207.84;;;17.90;70.08
21401;BME280;18038;50.166;18.908;2022-08-16T00:28:44;97205.41;;;17.88;70.26
21401;BME280;18038;50.166;18.908;2022-08-16T00:31:57;97213.31;;;18.05;69.36
21401;BME280;18038;50.166;18.908;2022-08-16T00:35:13;97209.59;;;18.16;69.19
21401;BME280;18038;50.166;18.908;2022-08-16T00:38:22;97214.19;;;18.21;68.89
21401;BME280;18038;50.166;18.908;2022-08-16T00:41:47;97215.22;;;18.04;69.14
21401;BME280;18038;50.166;18.908;2022-08-16T00:44:56;97207.78;;;17.79;70.09
21401;BME280;18038;50.166;18.908;2022-08-16T00:48:14;97207.16;;;17.62;71.03
21401;BME280;18038;50.166;18.908;2022-08-16T00:51:35;97210.88;;;17.56;71.00
21401;BME280;18038;50.166;18.908;2022-08-16T00:54:42;97216.31;;;17.61;71.35
21401;BME280;18038;50.166;18.908;2022-08-16T00:57:54;97209.88;;;17.67;71.01
21401;BME280;18038;50.166;18.908;2022-08-16T01:01:02;97213.56;;;17.56;71.27
21401;BME280;18038;50.166;18.908;2022-08-16T01:04:13;97217.50;;;17.38;72.23
21401;BME280;18038;50.166;18.908;2022-08-16T01:07:34;97222.44;;;17.14;72.97
21401;BME280;18038;50.166;18.908;2022-08-16T01:10:54;97224.94;;;17.26;72.47
21401;BME280;18038;50.166;18.908;2022-08-16T01:14:10;97242.63;;;17.43;71.88
21401;BME280;18038;50.166;18.908;2022-08-16T01:17:22;97241.06;;;17.53;71.18
21401;BME280;18038;50.166;18.908;2022-08-16T01:20:50;97242.22;;;17.57;71.12
21401;BME280;18038;50.166;18.908;2022-08-16T01:24:18;97246.88;;;17.67;70.88
21401;BME280;18038;50.166;18.908;2022-08-16T01:27:52;97242.50;;;17.60;70.58
21401;BME280;18038;50.166;18.908;2022-08-16T01:31:01;97238.47;;;17.63;71.16
21401;BME280;18038;50.166;18.908;2022-08-16T01:34:11;97228.78;;;17.67;71.02
21401;BME280;18038;50.166;18.908;2022-08-16T01:37:28;97226.31;;;17.60;70.83
21401;BME280;18038;50.166;18.908;2022-08-16T01:40:49;97230.16;;;17.32;71.61
21401;BME280;18038;50.166;18.908;2022-08-16T01:43:57;97226.84;;;17.25;72.19
21401;BME280;18038;50.166;18.908;2022-08-16T01:47:05;97225.66;;;17.16;72.55
21401;BME280;18038;50.166;18.908;2022-08-16T01:50:11;97227.28;;;17.12;73.00
21401;BME280;18038;50.166;18.908;2022-08-16T01:53:37;97230.25;;;17.15;72.49
21401;BME280;18038;50.166;18.908;2022-08-16T01:56:53;97233.72;;;17.11;72.50
21401;BME280;18038;50.166;18.908;2022-08-16T02:00:05;97237.59;;;17.20;71.90
21401;BME280;18038;50.166;18.908;2022-08-16T02:03:21;97241.88;;;17.16;72.08
21401;BME280;18038;50.166;18.908;2022-08-16T02:06:28;97229.41;;;17.10;72.44
21401;BME280;18038;50.166;18.908;2022-08-16T02:09:39;97231.28;;;17.09;72.43
21401;BME280;18038;50.166;18.908;2022-08-16T02:13:07;97232.34;;;17.03;73.17
21401;BME280;18038;50.166;18.908;2022-08-16T02:16:14;97230.41;;;16.98;73.07
21401;BME280;18038;50.166;18.908;2022-08-16T02:19:23;97237.81;;;16.86;73.44
21401;BME280;18038;50.166;18.908;2022-08-16T02:22:51;97234.38;;;16.91;73.80
21401;BME280;18038;50.166;18.908;2022-08-16T02:25:56;97238.94;;;16.90;73.55
21401;BME280;18038;50.166;18.908;2022-08-16T02:29:06;97236.50;;;16.89;72.82
21401;BME280;18038;50.166;18.908;2022-08-16T02:32:16;97232.72;;;16.90;73.15
21401;BME280;18038;50.166;18.908;2022-08-16T02:35:42;97236.31;;;16.95;72.99
21401;BME280;18038;50.166;18.908;2022-08-16T02:39:02;97230.03;;;16.90;72.94
21401;BME280;18038;50.166;18.908;2022-08-16T02:42:09;97221.13;;;16.89;73.30
21401;BME280;18038;50.166;18.908;2022-08-16T02:45:25;97226.06;;;16.97;72.87
21401;BME280;18038;50.166;18.908;2022-08-16T02:48:34;97215.53;;;16.96;72.80
21401;BME280;18038;50.166;18.908;2022-08-16T02:51:50;97211.47;;;16.93;73.01
21401;BME280;18038;50.166;18.908;2022-08-16T02:54:58;97226.28;;;16.91;73.28
21401;BME280;18038;50.166;18.908;2022-08-16T02:58:05;97230.53;;;16.87;72.74
21401;BME280;18038;50.166;18.908;2022-08-16T03:01:20;97232.59;;;16.74;73.35
21401;BME280;18038;50.166;18.908;2022-08-16T03:04:55;97235.16;;;16.64;73.73
21401;BME280;18038;50.166;18.908;2022-08-16T03:08:16;97234.44;;;16.69;74.01
21401;BME280;18038;50.166;18.908;2022-08-16T03:11:46;97236.09;;;16.75;74.11
21401;BME280;18038;50.166;18.908;2022-08-16T03:14:52;97233.91;;;16.72;73.80
21401;BME280;18038;50.166;18.908;2022-08-16T03:18:01;97231.47;;;16.70;73.96
21401;BME280;18038;50.166;18.908;2022-08-16T03:21:20;97231.31;;;16.60;74.15
21401;BME280;18038;50.166;18.908;2022-08-16T03:24:28;97226.72;;;16.61;74.52
21401;BME280;18038;50.166;18.908;2022-08-16T03:27:42;97225.88;;;16.55;74.93
21401;BME280;18038;50.166;18.908;2022-08-16T03:30:52;97228.31;;;16.57;74.67
21401;BME280;18038;50.166;18.908;2022-08-16T03:34:00;97229.03;;;16.69;74.06
21401;BME280;18038;50.166;18.908;2022-08-16T03:37:14;97234.72;;;16.72;73.80
21401;BME280;18038;50.166;18.908;2022-08-16T03:40:22;97237.72;;;16.54;73.81
21401;BME280;18038;50.166;18.908;2022-08-16T03:43:35;97245.81;;;16.54;74.47
21401;BME280;18038;50.166;18.908;2022-08-16T03:46:55;97241.13;;;16.22;75.53
21401;BME280;18038;50.166;18.908;2022-08-16T03:50:09;97248.59;;;16.15;76.37
21401;BME280;18038;50.166;18.908;2022-08-16T03:53:28;97246.25;;;16.02;76.56
21401;BME280;18038;50.166;18.908;2022-08-16T03:56:47;97250.56;;;15.81;77.74
21401;BME280;18038;50.166;18.908;2022-08-16T04:00:19;97243.25;;;15.76;77.99
21401;BME280;18038;50.166;18.908;2022-08-16T04:03:44;97252.97;;;15.99;77.67
21401;BME280;18038;50.166;18.908;2022-08-16T04:06:53;97255.03;;;15.92;77.74
21401;BME280;18038;50.166;18.908;2022-08-16T04:10:00;97252.38;;;15.97;77.56
21401;BME280;18038;50.166;18.908;2022-08-16T04:13:36;97241.50;;;15.87;77.71
21401;BME280;18038;50.166;18.908;2022-08-16T04:17:13;97250.19;;;15.94;77.94
21401;BME280;18038;50.166;18.908;2022-08-16T04:20:36;97252.59;;;16.13;77.30
21401;BME280;18038;50.166;18.908;2022-08-16T04:23:46;97255.41;;;16.23;77.17
21401;BME280;18038;50.166;18.908;2022-08-16T04:26:56;97254.34;;;16.46;76.08
21401;BME280;18038;50.166;18.908;2022-08-16T04:30:06;97260.47;;;16.63;75.77
21401;BME280;18038;50.166;18.908;2022-08-16T04:33:34;97255.91;;;16.64;75.74
21401;BME280;18038;50.166;18.908;2022-08-16T04:36:57;97259.19;;;17.20;73.71
21401;BME280;18038;50.166;18.908;2022-08-16T04:40:17;97267.25;;;17.84;72.04
21401;BME280;18038;50.166;18.908;2022-08-16T04:43:47;97264.88;;;18.41;68.86
21401;BME280;18038;50.166;18.908;2022-08-16T04:46:55;97260.13;;;18.79;67.77
21401;BME280;18038;50.166;18.908;2022-08-16T04:50:24;97272.13;;;19.29;66.21
21401;BME280;18038;50.166;18.908;2022-08-16T04:53:34;97267.25;;;19.26;65.76
21401;BME280;18038;50.166;18.908;2022-08-16T04:56:45;97268.84;;;19.16;66.21
21401;BME280;18038;50.166;18.908;2022-08-16T04:59:55;97257.75;;;19.59;65.32
21401;BME280;18038;50.166;18.908;2022-08-16T05:03:41;97261.50;;;20.04;63.69
21401;BME280;18038;50.166;18.908;2022-08-16T05:07:13;97271.75;;;20.22;62.67
21401;BME280;18038;50.166;18.908;2022-08-16T05:10:49;97280.22;;;19.80;64.00
21401;BME280;18038;50.166;18.908;2022-08-16T05:14:06;97287.78;;;20.19;63.38
21401;BME280;18038;50.166;18.908;2022-08-16T05:17:22;97288.16;;;20.62;61.39
21401;BME280;18038;50.166;18.908;2022-08-16T05:20:32;97290.00;;;21.21;59.57
21401;BME280;18038;50.166;18.908;2022-08-16T05:23:58;97292.47;;;20.63;60.91
21401;BME280;18038;50.166;18.908;2022-08-16T05:27:15;97292.44;;;19.98;63.79
21401;BME280;18038;50.166;18.908;2022-08-16T05:30:28;97299.66;;;20.28;62.55
21401;BME280;18038;50.166;18.908;2022-08-16T05:33:41;97311.22;;;20.59;61.63
21401;BME280;18038;50.166;18.908;2022-08-16T05:36:58;97312.09;;;21.09;60.29
21401;BME280;18038;50.166;18.908;2022-08-16T05:40:23;97323.50;;;20.36;62.23
21401;BME280;18038;50.166;18.908;2022-08-16T05:43:29;97319.84;;;21.26;59.58
21401;BME280;18038;50.166;18.908;2022-08-16T05:46:59;97323.88;;;22.32;56.45
21401;BME280;18038;50.166;18.908;2022-08-16T05:50:35;97331.97;;;22.61;54.88
21401;BME280;18038;50.166;18.908;2022-08-16T05:53:43;97335.00;;;22.59;55.58
21401;BME280;18038;50.166;18.908;2022-08-16T05:56:51;97332.69;;;23.34;53.21
21401;BME280;18038;50.166;18.908;2022-08-16T05:59:58;97333.72;;;24.22;51.14
21401;BME280;18038;50.166;18.908;2022-08-16T06:03:24;97337.69;;;24.44;49.98
21401;BME280;18038;50.166;18.908;2022-08-16T06:06:47;97334.97;;;24.57;49.87
21401;BME280;18038;50.166;18.908;2022-08-16T06:09:59;97326.84;;;25.08;48.64
21401;BME280;18038;50.166;18.908;2022-08-16T06:13:07;97338.31;;;26.13;46.03
21401;BME280;18038;50.166;18.908;2022-08-16T06:16:19;97334.41;;;26.77;44.94
21401;BME280;18038;50.166;18.908;2022-08-16T06:19:39;97326.44;;;27.76;42.33
21401;BME280;18038;50.166;18.908;2022-08-16T06:22:54;97324.38;;;28.46;40.57
21401;BME280;18038;50.166;18.908;2022-08-16T06:26:12;97322.56;;;28.89;38.84
21401;BME280;18038;50.166;18.908;2022-08-16T06:29:20;97328.03;;;28.59;39.48
21401;BME280;18038;50.166;18.908;2022-08-16T06:32:28;97325.31;;;29.60;37.60
21401;BME280;18038;50.166;18.908;2022-08-16T06:35:47;97328.28;;;30.34;35.79
21401;BME280;18038;50.166;18.908;2022-08-16T06:38:56;97333.78;;;30.34;36.38
21401;BME280;18038;50.166;18.908;2022-08-16T06:42:35;97337.50;;;29.72;37.39
21401;BME280;18038;50.166;18.908;2022-08-16T06:46:25;97345.63;;;30.47;36.36
21401;BME280;18038;50.166;18.908;2022-08-16T06:49:49;97354.78;;;31.09;35.02
21401;BME280;18038;50.166;18.908;2022-08-16T06:53:20;97349.00;;;31.02;34.69
21401;BME280;18038;50.166;18.908;2022-08-16T06:56:33;97349.81;;;31.95;33.32
21401;BME280;18038;50.166;18.908;2022-08-16T06:59:43;97349.75;;;32.36;32.29
21401;BME280;18038;50.166;18.908;2022-08-16T07:03:05;97350.91;;;32.82;31.11
21401;BME280;18038;50.166;18.908;2022-08-16T07:06:29;97358.66;;;33.08;30.72
21401;BME280;18038;50.166;18.908;2022-08-16T07:09:45;97352.72;;;33.26;30.72
21401;BME280;18038;50.166;18.908;2022-08-16T07:12:53;97368.09;;;33.43;30.12
21401;BME280;18038;50.166;18.908;2022-08-16T07:16:07;97352.13;;;33.17;30.62
21401;BME280;18038;50.166;18.908;2022-08-16T07:19:21;97356.16;;;32.56;31.32
21401;BME280;18038;50.166;18.908;2022-08-16T07:22:47;97352.22;;;33.04;30.69
21401;BME280;18038;50.166;18.908;2022-08-16T07:26:22;97357.94;;;32.80;30.96
21401;BME280;18038;50.166;18.908;2022-08-16T07:29:32;97348.38;;;33.44;30.27
21401;BME280;18038;50.166;18.908;2022-08-16T07:32:45;97344.53;;;33.14;30.09
21401;BME280;18038;50.166;18.908;2022-08-16T07:35:53;97350.88;;;33.49;29.48
21401;BME280;18038;50.166;18.908;2022-08-16T07:38:59;97347.38;;;33.52;28.87
21401;BME280;18038;50.166;18.908;2022-08-16T07:42:12;97350.88;;;33.88;28.78
21401;BME280;18038;50.166;18.908;2022-08-16T07:45:31;97366.94;;;33.08;29.42
21401;BME280;18038;50.166;18.908;2022-08-16T07:48:38;97361.81;;;32.15;31.19
21401;BME280;18038;50.166;18.908;2022-08-16T07:51:50;97368.88;;;32.29;31.25
21401;BME280;18038;50.166;18.908;2022-08-16T07:55:14;97366.84;;;33.05;30.18
21401;BME280;18038;50.166;18.908;2022-08-16T07:58:23;97371.47;;;32.37;30.57
21401;BME280;18038;50.166;18.908;2022-08-16T08:01:42;97378.28;;;31.84;31.96
21401;BME280;18038;50.166;18.908;2022-08-16T08:04:48;97371.38;;;32.34;31.04
21401;BME280;18038;50.166;18.908;2022-08-16T08:07:54;97365.56;;;31.95;31.09
21401;BME280;18038;50.166;18.908;2022-08-16T08:11:04;97367.97;;;31.68;32.24
21401;BME280;18038;50.166;18.908;2022-08-16T08:14:13;97366.56;;;31.74;31.72
21401;BME280;18038;50.166;18.908;2022-08-16T08:17:36;97364.47;;;31.84;31.65
21401;BME280;18038;50.166;18.908;2022-08-16T08:20:48;97373.69;;;32.03;29.94
21401;BME280;18038;50.166;18.908;2022-08-16T08:24:17;97368.19;;;31.75;30.87
21401;BME280;18038;50.166;18.908;2022-08-16T08:27:33;97367.50;;;32.82;29.12
21401;BME280;18038;50.166;18.908;2022-08-16T08:30:47;97371.09;;;33.34;28.73
21401;BME280;18038;50.166;18.908;2022-08-16T08:34:15;97373.63;;;33.97;27.88
21401;BME280;18038;50.166;18.908;2022-08-16T08:37:20;97375.81;;;33.69;27.64
21401;BME280;18038;50.166;18.908;2022-08-16T08:40:30;97373.31;;;33.83;27.13
21401;BME280;18038;50.166;18.908;2022-08-16T08:43:40;97372.84;;;33.42;28.06
21401;BME280;18038;50.166;18.908;2022-08-16T08:46:52;97378.72;;;33.95;28.04
21401;BME280;18038;50.166;18.908;2022-08-16T08:50:06;97389.03;;;34.37;27.62
21401;BME280;18038;50.166;18.908;2022-08-16T08:53:32;97380.19;;;34.74;26.25
21401;BME280;18038;50.166;18.908;2022-08-16T08:56:40;97381.06;;;34.55;27.46
21401;BME280;18038;50.166;18.908;2022-08-16T09:00:16;97380.47;;;34.92;25.07
21401;BME280;18038;50.166;18.908;2022-08-16T09:03:37;97372.94;;;34.47;25.56
21401;BME280;18038;50.166;18.908;2022-08-16T09:06:44;97378.22;;;34.98;25.94
21401;BME280;18038;50.166;18.908;2022-08-16T09:09:51;97371.13;;;35.54;24.75
21401;BME280;18038;50.166;18.908;2022-08-16T09:13:10;97369.31;;;35.42;25.16
21401;BME280;18038;50.166;18.908;2022-08-16T09:16:29;97375.88;;;34.77;24.59
21401;BME280;18038;50.166;18.908;2022-08-16T09:19:59;97374.59;;;34.28;26.82
21401;BME280;18038;50.166;18.908;2022-08-16T09:23:07;97372.88;;;34.20;27.25
21401;BME280;18038;50.166;18.908;2022-08-16T09:26:19;97364.00;;;34.53;27.09
21401;BME280;18038;50.166;18.908;2022-08-16T09:29:45;97366.63;;;33.84;26.76
21401;BME280;18038;50.166;18.908;2022-08-16T09:33:03;97366.91;;;33.98;27.03
21401;BME280;18038;50.166;18.908;2022-08-16T09:36:13;97368.31;;;33.69;28.57
21401;BME280;18038;50.166;18.908;2022-08-16T09:39:33;97366.28;;;33.31;27.62
21401;BME280;18038;50.166;18.908;2022-08-16T09:42:43;97369.81;;;34.25;26.99
21401;BME280;18038;50.166;18.908;2022-08-16T09:46:02;97365.75;;;34.19;26.47
21401;BME280;18038;50.166;18.908;2022-08-16T09:49:29;97368.34;;;33.53;27.78
21401;BME280;18038;50.166;18.908;2022-08-16T09:52:41;97363.94;;;32.66;29.17
21401;BME280;18038;50.166;18.908;2022-08-16T09:55:52;97369.16;;;33.19;28.50
21401;BME280;18038;50.166;18.908;2022-08-16T09:59:03;97373.69;;;33.62;28.61
21401;BME280;18038;50.166;18.908;2022-08-16T10:02:12;97364.81;;;33.92;27.37
21401;BME280;18038;50.166;18.908;2022-08-16T10:05:28;97366.56;;;34.43;26.07
21401;BME280;18038;50.166;18.908;2022-08-16T10:08:37;97373.34;;;34.45;25.12
21401;BME280;18038;50.166;18.908;2022-08-16T10:12:04;97376.19;;;34.72;25.58
21401;BME280;18038;50.166;18.908;2022-08-16T10:15:23;97373.75;;;34.05;26.83
21401;BME280;18038;50.166;18.908;2022-08-16T10:18:31;97374.78;;;33.58;28.58
21401;BME280;18038;50.166;18.908;2022-08-16T10:21:57;97388.28;;;34.40;27.25
21401;BME280;18038;50.166;18.908;2022-08-16T10:25:09;97383.06;;;35.31;24.76
21401;BME280;18038;50.166;18.908;2022-08-16T10:28:35;97385.16;;;34.88;26.11
21401;BME280;18038;50.166;18.908;2022-08-16T10:31:43;97383.53;;;33.98;25.37
21401;BME280;18038;50.166;18.908;2022-08-16T10:34:55;97383.28;;;34.69;24.25
21401;BME280;18038;50.166;18.908;2022-08-16T10:38:00;97388.03;;;35.18;23.73
21401;BME280;18038;50.166;18.908;2022-08-16T10:41:13;97387.50;;;34.86;24.92
21401;BME280;18038;50.166;18.908;2022-08-16T10:44:25;97381.31;;;34.27;26.47
21401;BME280;18038;50.166;18.908;2022-08-16T10:47:31;97377.47;;;34.32;27.26
21401;BME280;18038;50.166;18.908;2022-08-16T10:50:39;97374.84;;;34.62;26.26
21401;BME280;18038;50.166;18.908;2022-08-16T10:53:45;97372.38;;;34.80;26.40
21401;BME280;18038;50.166;18.908;2022-08-16T10:56:54;97366.50;;;33.58;27.06
21401;BME280;18038;50.166;18.908;2022-08-16T11:00:00;97362.78;;;34.08;26.77
21401;BME280;18038;50.166;18.908;2022-08-16T11:03:24;97370.00;;;34.36;25.69
21401;BME280;18038;50.166;18.908;2022-08-16T11:06:47;97371.59;;;34.14;25.92
21401;BME280;18038;50.166;18.908;2022-08-16T11:10:11;97374.84;;;34.19;26.46
21401;BME280;18038;50.166;18.908;2022-08-16T11:13:25;97385.69;;;34.28;27.18
21401;BME280;18038;50.166;18.908;2022-08-16T11:16:51;97378.94;;;34.06;28.50
21401;BME280;18038;50.166;18.908;2022-08-16T11:20:12;97379.41;;;33.53;27.22
21401;BME280;18038;50.166;18.908;2022-08-16T11:23:39;97371.09;;;33.34;27.53
21401;BME280;18038;50.166;18.908;2022-08-16T11:26:59;97366.97;;;33.83;28.33
21401;BME280;18038;50.166;18.908;2022-08-16T11:30:29;97367.94;;;34.52;26.31
21401;BME280;18038;50.166;18.908;2022-08-16T11:33:40;97361.88;;;34.04;27.08
21401;BME280;18038;50.166;18.908;2022-08-16T11:36:54;97354.16;;;33.20;28.30
21401;BME280;18038;50.166;18.908;2022-08-16T11:40:05;97349.91;;;34.19;27.27
21401;BME280;18038;50.166;18.908;2022-08-16T11:43:13;97347.06;;;34.58;27.99
21401;BME280;18038;50.166;18.908;2022-08-16T11:46:26;97352.69;;;34.66;26.87
21401;BME280;18038;50.166;18.908;2022-08-16T11:49:47;97351.94;;;34.92;27.22
21401;BME280;18038;50.166;18.908;2022-08-16T11:52:53;97353.53;;;34.47;25.62
21401;BME280;18038;50.166;18.908;2022-08-16T11:56:00;97360.19;;;34.61;26.34
21401;BME280;18038;50.166;18.908;2022-08-16T11:59:07;97355.00;;;34.87;26.07
21401;BME280;18038;50.166;18.908;2022-08-16T12:02:16;97362.31;;;34.72;25.51
21401;BME280;18038;50.166;18.908;2022-08-16T12:05:42;97369.25;;;33.58;26.14
21401;BME280;18038;50.166;18.908;2022-08-16T12:08:55;97361.78;;;33.42;27.82
21401;BME280;18038;50.166;18.908;2022-08-16T12:12:10;97358.59;;;33.60;26.89
21401;BME280;18038;50.166;18.908;2022-08-16T12:15:37;97356.94;;;33.74;27.06
21401;BME280;18038;50.166;18.908;2022-08-16T12:19:00;97345.06;;;34.13;26.43
21401;BME280;18038;50.166;18.908;2022-08-16T12:22:15;97345.13;;;34.39;25.76
21401;BME280;18038;50.166;18.908;2022-08-16T12:25:23;97340.13;;;34.49;26.35
21401;BME280;18038;50.166;18.908;2022-08-16T12:28:38;97326.44;;;34.36;26.75
21401;BME280;18038;50.166;18.908;2022-08-16T12:31:58;97333.91;;;34.78;26.39
21401;BME280;18038;50.166;18.908;2022-08-16T12:35:35;97344.66;;;34.83;25.00
21401;BME280;18038;50.166;18.908;2022-08-16T12:38:50;97346.03;;;34.70;25.41
21401;BME280;18038;50.166;18.908;2022-08-16T12:41:58;97345.25;;;34.70;25.98
21401;BME280;18038;50.166;18.908;2022-08-16T12:45:15;97332.41;;;34.38;24.72
21401;BME280;18038;50.166;18.908;2022-08-16T12:48:33;97332.75;;;34.79;25.15
21401;BME280;18038;50.166;18.908;2022-08-16T12:51:56;97322.38;;;33.88;25.54
21401;BME280;18038;50.166;18.908;2022-08-16T12:55:09;97328.81;;;33.92;25.92
21401;BME280;18038;50.166;18.908;2022-08-16T12:58:16;97323.16;;;33.65;26.04
21401;BME280;18038;50.166;18.908;2022-08-16T13:01:42;97322.59;;;33.60;26.29
21401;BME280;18038;50.166;18.908;2022-08-16T13:04:51;97324.78;;;33.50;26.35
21401;BME280;18038;50.166;18.908;2022-08-16T13:08:00;97322.06;;;32.99;26.65
21401;BME280;18038;50.166;18.908;2022-08-16T13:11:11;97324.59;;;32.25;28.24
21401;BME280;18038;50.166;18.908;2022-08-16T13:14:29;97321.59;;;32.02;29.56
21401;BME280;18038;50.166;18.908;2022-08-16T13:17:40;97319.84;;;31.82;28.98
21401;BME280;18038;50.166;18.908;2022-08-16T13:20:51;97315.09;;;31.66;30.14
21401;BME280;18038;50.166;18.908;2022-08-16T13:24:00;97322.09;;;30.49;31.05
21401;BME280;18038;50.166;18.908;2022-08-16T13:27:06;97317.16;;;29.43;32.74
21401;BME280;18038;50.166;18.908;2022-08-16T13:30:15;97319.25;;;29.25;33.50
21401;BME280;18038;50.166;18.908;2022-08-16T13:33:37;97332.88;;;29.22;33.96
21401;BME280;18038;50.166;18.908;2022-08-16T13:36:49;97330.69;;;28.76;34.82
21401;BME280;18038;50.166;18.908;2022-08-16T13:40:00;97333.25;;;28.52;35.37
21401;BME280;18038;50.166;18.908;2022-08-16T13:43:07;97334.31;;;28.68;35.58
21401;BME280;18038;50.166;18.908;2022-08-16T13:46:13;97331.19;;;29.08;35.31
21401;BME280;18038;50.166;18.908;2022-08-16T13:49:22;97336.69;;;29.08;34.98
21401;BME280;18038;50.166;18.908;2022-08-16T13:52:34;97339.09;;;29.10;34.87
21401;BME280;18038;50.166;18.908;2022-08-16T13:55:43;97333.94;;;28.79;35.04
21401;BME280;18038;50.166;18.908;2022-08-16T13:59:03;97326.06;;;28.98;35.46
21401;BME280;18038;50.166;18.908;2022-08-16T14:02:21;97335.22;;;28.81;35.46
21401;BME280;18038;50.166;18.908;2022-08-16T14:05:34;97340.66;;;28.90;35.67
21401;BME280;18038;50.166;18.908;2022-08-16T14:08:50;97336.38;;;28.71;36.46
21401;BME280;18038;50.166;18.908;2022-08-16T14:12:18;97329.25;;;28.41;36.67
21401;BME280;18038;50.166;18.908;2022-08-16T14:15:26;97330.19;;;28.45;36.89
21401;BME280;18038;50.166;18.908;2022-08-16T14:18:41;97328.50;;;28.14;37.45
21401;BME280;18038;50.166;18.908;2022-08-16T14:21:47;97324.28;;;28.17;37.94
21401;BME280;18038;50.166;18.908;2022-08-16T14:25:18;97326.63;;;28.36;37.75
21401;BME280;18038;50.166;18.908;2022-08-16T14:28:47;97316.31;;;28.32;37.86
21401;BME280;18038;50.166;18.908;2022-08-16T14:32:08;97320.56;;;28.68;37.55
21401;BME280;18038;50.166;18.908;2022-08-16T14:35:34;97308.78;;;28.97;36.57
21401;BME280;18038;50.166;18.908;2022-08-16T14:38:51;97312.31;;;28.98;37.74
21401;BME280;18038;50.166;18.908;2022-08-16T14:42:04;97323.31;;;28.98;37.07
21401;BME280;18038;50.166;18.908;2022-08-16T14:45:22;97323.25;;;29.07;34.81
21401;BME280;18038;50.166;18.908;2022-08-16T14:48:31;97326.41;;;29.17;34.28
21401;BME280;18038;50.166;18.908;2022-08-16T14:51:40;97319.09;;;29.01;34.42
21401;BME280;18038;50.166;18.908;2022-08-16T14:54:49;97334.50;;;28.93;33.51
21401;BME280;18038;50.166;18.908;2022-08-16T14:57:57;97335.16;;;28.90;32.66
21401;BME280;18038;50.166;18.908;2022-08-16T15:01:09;97335.94;;;28.61;33.65
21401;BME280;18038;50.166;18.908;2022-08-16T15:04:20;97348.59;;;28.53;33.54
21401;BME280;18038;50.166;18.908;2022-08-16T15:07:41;97349.34;;;28.15;33.49
21401;BME280;18038;50.166;18.908;2022-08-16T15:10:48;97344.00;;;28.19;33.19
21401;BME280;18038;50.166;18.908;2022-08-16T15:13:54;97333.13;;;28.40;33.23
21401;BME280;18038;50.166;18.908;2022-08-16T15:17:03;97333.13;;;28.40;33.82
21401;BME280;18038;50.166;18.908;2022-08-16T15:20:32;97327.75;;;28.52;33.13
21401;BME280;18038;50.166;18.908;2022-08-16T15:23:47;97326.25;;;28.63;33.19
21401;BME280;18038;50.166;18.908;2022-08-16T15:26:55;97325.91;;;28.65;33.26
21401;BME280;18038;50.166;18.908;2022-08-16T15:30:01;97330.03;;;28.32;33.54
21401;BME280;18038;50.166;18.908;2022-08-16T15:33:39;97347.75;;;27.97;34.30
21401;BME280;18038;50.166;18.908;2022-08-16T15:36:56;97355.53;;;27.86;34.74
21401;BME280;18038;50.166;18.908;2022-08-16T15:40:05;97347.94;;;27.92;35.15
21401;BME280;18038;50.166;18.908;2022-08-16T15:43:33;97365.19;;;27.49;35.96
21401;BME280;18038;50.166;18.908;2022-08-16T15:46:41;97368.41;;;27.51;36.28
21401;BME280;18038;50.166;18.908;2022-08-16T15:50:02;97383.25;;;27.50;36.32
21401;BME280;18038;50.166;18.908;2022-08-16T15:53:12;97386.81;;;27.41;36.68
21401;BME280;18038;50.166;18.908;2022-08-16T15:56:22;97387.09;;;27.31;36.73
21401;BME280;18038;50.166;18.908;2022-08-16T15:59:32;97383.50;;;27.22;37.32
21401;BME280;18038;50.166;18.908;2022-08-16T16:02:59;97390.13;;;27.12;37.61
21401;BME280;18038;50.166;18.908;2022-08-16T16:06:13;97391.06;;;27.16;37.31
21401;BME280;18038;50.166;18.908;2022-08-16T16:09:29;97384.63;;;27.12;38.51
21401;BME280;18038;50.166;18.908;2022-08-16T16:12:38;97391.22;;;27.11;38.34
21401;BME280;18038;50.166;18.908;2022-08-16T16:15:57;97391.53;;;27.01;38.57
21401;BME280;18038;50.166;18.908;2022-08-16T16:19:07;97393.31;;;27.06;39.19
21401;BME280;18038;50.166;18.908;2022-08-16T16:22:25;97378.16;;;26.99;38.92
21401;BME280;18038;50.166;18.908;2022-08-16T16:25:32;97370.72;;;27.00;39.00
21401;BME280;18038;50.166;18.908;2022-08-16T16:28:38;97375.06;;;26.92;39.17
21401;BME280;18038;50.166;18.908;2022-08-16T16:32:10;97374.53;;;26.82;38.93
21401;BME280;18038;50.166;18.908;2022-08-16T16:35:36;97371.44;;;26.66;39.62
21401;BME280;18038;50.166;18.908;2022-08-16T16:38:50;97372.09;;;26.71;39.80
21401;BME280;18038;50.166;18.908;2022-08-16T16:41:56;97374.53;;;26.73;39.84
21401;BME280;18038;50.166;18.908;2022-08-16T16:45:07;97374.09;;;26.88;39.49
21401;BME280;18038;50.166;18.908;2022-08-16T16:48:13;97384.91;;;26.93;39.23
21401;BME280;18038;50.166;18.908;2022-08-16T16:51:37;97386.16;;;26.78;39.90
21401;BME280;18038;50.166;18.908;2022-08-16T16:54:48;97394.53;;;26.82;39.25
21401;BME280;18038;50.166;18.908;2022-08-16T16:57:57;97394.06;;;26.80;39.68
21401;BME280;18038;50.166;18.908;2022-08-16T17:01:39;97404.66;;;26.73;40.66
21401;BME280;18038;50.166;18.908;2022-08-16T17:05:19;97405.44;;;26.65;39.77